Time;durP1;ratioP1;P1;durP2;ratioP2;P2;SDS_P1;SDS_P2;PMS_P1;PMS_P2;Temp;Humidity;BMP_temperature;BMP_pressure;BME280_temperature;BME280_humidity;BME280_pressure;Samples;Min_cycle;Max_cycle;Signal;HPM_P1;HPM_P2
2023/03/17 00:00:50;;;;;;;1999.90;999.90;;;3.00;99.90;;;;;;5033955;28;20068;-78
2023/03/17 00:03:23;;;;;;;1999.90;999.90;;;3.00;99.90;;;;;;5067361;28;20488;-78
2023/03/17 00:05:49;;;;;;;1999.90;999.90;;;3.00;99.90;;;;;;5034613;28;20040;-78
2023/03/17 00:08:23;;;;;;;1999.90;999.90;;;2.90;99.90;;;;;;5034034;28;20529;-78
2023/03/17 00:10:50;;;;;;;1999.90;999.90;;;2.90;99.90;;;;;;5033779;28;20129;-78
2023/03/17 00:13:16;;;;;;;1999.90;999.90;;;2.90;99.90;;;;;;5035422;28;20022;-78
2023/03/17 00:15:43;;;;;;;1999.90;999.90;;;2.80;99.90;;;;;;5034770;28;20129;-78
2023/03/17 00:18:15;;;;;;;1999.90;999.90;;;2.70;99.90;;;;;;5035273;28;20085;-78
2023/03/17 00:20:41;;;;;;;1999.90;999.90;;;2.70;99.90;;;;;;5035330;28;20044;-79
2023/03/17 00:23:22;;;;;;;1999.90;999.90;;;2.70;99.90;;;;;;5035167;28;20034;-78
2023/03/17 00:25:48;;;;;;;1999.90;999.90;;;2.60;99.90;;;;;;5032830;28;20511;-78
2023/03/17 00:28:24;;;;;;;1999.90;999.90;;;2.60;99.90;;;;;;5035031;28;20559;-78
2023/03/17 00:30:59;;;;;;;1999.90;999.90;;;2.60;99.90;;;;;;5035020;28;20037;-78
2023/03/17 00:33:27;;;;;;;1999.90;999.90;;;2.60;99.90;;;;;;5034996;28;20030;-78
2023/03/17 00:35:54;;;;;;;1999.90;999.90;;;2.60;99.90;;;;;;5034319;28;20104;-78
2023/03/17 00:38:23;;;;;;;1999.90;999.90;;;2.60;99.90;;;;;;5033479;28;20029;-78
2023/03/17 00:40:49;;;;;;;1999.90;999.90;;;2.60;99.90;;;;;;5034769;28;20034;-78
2023/03/17 00:43:16;;;;;;;1999.90;999.90;;;2.70;99.90;;;;;;5034995;28;20053;-78
2023/03/17 00:45:43;;;;;;;1999.90;999.90;;;2.70;99.90;;;;;;5034338;28;20061;-78
2023/03/17 00:48:17;;;;;;;1999.90;999.90;;;2.80;99.90;;;;;;5034822;28;20033;-78
2023/03/17 00:50:44;;;;;;;1999.90;999.90;;;2.70;99.90;;;;;;5033214;28;20038;-78
2023/03/17 00:53:17;;;;;;;1999.90;999.90;;;2.80;99.90;;;;;;5034767;28;20117;-78
2023/03/17 00:55:44;;;;;;;1999.90;999.90;;;2.80;99.90;;;;;;5032785;28;20108;-78
2023/03/17 00:58:21;;;;;;;1999.90;999.90;;;2.80;99.90;;;;;;5033163;28;20156;-78
2023/03/17 01:00:46;;;;;;;1999.90;999.90;;;2.80;99.90;;;;;;5034800;28;20030;-78
2023/03/17 01:03:12;;;;;;;1999.90;999.90;;;2.70;99.90;;;;;;5034684;28;20409;-78
2023/03/17 01:05:39;;;;;;;1999.90;999.90;;;2.80;99.90;;;;;;5032394;28;20034;-78
2023/03/17 01:08:05;;;;;;;1999.90;999.90;;;2.90;99.90;;;;;;5034653;28;20034;-78
2023/03/17 01:10:31;;;;;;;1999.90;999.90;;;2.90;99.90;;;;;;5068743;28;20042;-78
2023/03/17 01:12:58;;;;;;;1999.90;999.90;;;3.00;99.90;;;;;;5038216;28;20120;-78
2023/03/17 01:15:27;;;;;;;1999.90;999.90;;;3.10;99.90;;;;;;5036242;28;20048;-78
2023/03/17 01:17:53;;;;;;;1999.90;999.90;;;3.10;99.90;;;;;;5037922;28;20033;-78
2023/03/17 01:20:23;;;;;;;1999.90;999.90;;;3.20;99.90;;;;;;5037995;28;20045;-78
2023/03/17 01:22:49;;;;;;;1999.90;999.90;;;3.20;99.90;;;;;;5069783;28;20030;-79
2023/03/17 01:25:15;;;;;;;1999.90;999.90;;;3.20;99.90;;;;;;5035936;28;20042;-78
2023/03/17 01:27:42;;;;;;;1999.90;999.90;;;3.10;99.90;;;;;;5037928;28;20026;-78
2023/03/17 01:30:27;;;;;;;1999.90;999.90;;;3.10;99.90;;;;;;5037740;28;20046;-78
2023/03/17 01:32:54;;;;;;;1999.90;999.90;;;3.10;99.90;;;;;;5037690;28;20125;-78
2023/03/17 01:35:21;;;;;;;1999.90;999.90;;;3.20;99.90;;;;;;5035824;28;20034;-78
2023/03/17 01:37:47;;;;;;;1999.90;999.90;;;3.20;99.90;;;;;;5037611;28;20029;-78
2023/03/17 01:40:19;;;;;;;1999.90;999.90;;;3.20;99.90;;;;;;5036200;28;20033;-78
2023/03/17 01:43:03;;;;;;;1999.90;999.90;;;3.30;99.90;;;;;;5037789;28;20030;-78
2023/03/17 01:46:29;;;;;;;1999.90;999.90;;;3.30;99.90;;;;;;5038011;28;20121;-78
2023/03/17 01:49:04;;;;;;;1999.90;999.90;;;3.30;99.90;;;;;;4975841;28;20035;-78
2023/03/17 01:51:36;;;;;;;1999.90;999.90;;;3.30;99.90;;;;;;4976140;28;20461;-78
2023/03/17 01:54:07;;;;;;;1999.90;999.90;;;3.40;99.90;;;;;;5023822;28;20072;-78
2023/03/17 01:56:33;;;;;;;1999.90;999.90;;;3.50;99.90;;;;;;5055588;28;20392;-78
2023/03/17 01:59:04;;;;;;;1999.90;999.90;;;3.50;99.90;;;;;;5056183;28;20037;-77
2023/03/17 02:01:37;;;;;;;1999.90;999.90;;;3.50;99.90;;;;;;5057362;28;20029;-77
2023/03/17 02:04:04;;;;;;;1999.90;999.90;;;3.50;99.90;;;;;;5057114;28;20064;-77
2023/03/17 02:06:30;;;;;;;1999.90;999.90;;;3.50;99.90;;;;;;5056565;28;20504;-78
2023/03/17 02:08:56;;;;;;;1999.90;999.90;;;3.60;99.90;;;;;;5057016;28;20029;-77
2023/03/17 02:11:22;;;;;;;1999.90;999.90;;;3.60;99.90;;;;;;5056272;28;20112;-77
2023/03/17 02:13:48;;;;;;;1999.90;999.90;;;3.60;99.90;;;;;;5056943;28;20499;-77
2023/03/17 02:16:16;;;;;;;1999.90;999.90;;;3.60;99.90;;;;;;5054435;28;20033;-78
2023/03/17 02:18:42;;;;;;;1999.90;999.90;;;3.50;99.90;;;;;;5055440;28;20130;-77
2023/03/17 02:21:48;;;;;;;1999.90;999.90;;;3.50;99.90;;;;;;5056944;28;20535;-77
2023/03/17 02:24:30;;;;;;;1999.90;999.90;;;3.50;99.90;;;;;;5016156;28;20658;-77
2023/03/17 02:27:04;;;;;;;1999.90;999.90;;;3.50;99.90;;;;;;5056879;28;20116;-77
2023/03/17 02:29:33;;;;;;;1999.90;999.90;;;3.40;99.90;;;;;;5056892;28;20100;-77
2023/03/17 02:31:59;;;;;;;1999.90;999.90;;;3.40;99.90;;;;;;5056612;28;20108;-78
2023/03/17 02:34:25;;;;;;;1999.90;999.90;;;3.40;99.90;;;;;;5056578;28;20128;-77
2023/03/17 02:36:51;;;;;;;1999.90;999.90;;;3.40;99.90;;;;;;5056369;28;20036;-77
2023/03/17 02:39:16;;;;;;;1999.90;999.90;;;3.50;99.90;;;;;;5056373;28;20092;-77
2023/03/17 02:41:42;;;;;;;1999.90;999.90;;;3.50;99.90;;;;;;5056646;28;20060;-77
2023/03/17 02:44:08;;;;;;;1999.90;999.90;;;3.50;99.90;;;;;;5046248;28;20068;-77
2023/03/17 02:46:34;;;;;;;1999.90;999.90;;;3.50;99.90;;;;;;5033585;28;20762;-77
2023/03/17 02:49:00;;;;;;;1999.90;999.90;;;3.50;99.90;;;;;;5036721;28;20040;-77
2023/03/17 02:51:26;;;;;;;1999.90;999.90;;;3.40;99.90;;;;;;5036569;28;20168;-77
2023/03/17 02:53:52;;;;;;;1999.90;999.90;;;3.40;99.90;;;;;;5034937;28;20030;-77
2023/03/17 02:56:18;;;;;;;1999.90;999.90;;;3.40;99.90;;;;;;5036287;28;20508;-77
2023/03/17 02:58:43;;;;;;;1999.90;999.90;;;3.40;99.90;;;;;;5036469;28;20033;-77
2023/03/17 03:01:09;;;;;;;1999.90;999.90;;;3.40;99.90;;;;;;5036437;28;20038;-79
2023/03/17 03:03:35;;;;;;;1999.90;999.90;;;3.40;99.90;;;;;;5036508;28;20026;-77
2023/03/17 03:06:00;;;;;;;1999.90;999.90;;;3.40;99.90;;;;;;5035582;28;20045;-77
2023/03/17 03:08:26;;;;;;;1999.90;999.90;;;3.30;99.90;;;;;;5036337;28;20105;-77
2023/03/17 03:10:53;;;;;;;1999.90;999.90;;;3.30;99.90;;;;;;5036274;28;20034;-77
2023/03/17 03:13:19;;;;;;;1999.90;999.90;;;3.30;99.90;;;;;;5034811;28;20053;-77
2023/03/17 03:15:46;;;;;;;1999.90;999.90;;;3.20;99.90;;;;;;5035792;28;20109;-77
2023/03/17 03:18:12;;;;;;;1999.90;999.90;;;3.20;99.90;;;;;;5036056;28;20165;-77
2023/03/17 03:20:40;;;;;;;1999.90;999.90;;;3.30;99.90;;;;;;5036109;28;20542;-77
2023/03/17 03:23:06;;;;;;;1999.90;999.90;;;3.30;99.90;;;;;;5034587;28;20056;-77
2023/03/17 03:25:34;;;;;;;1999.90;999.90;;;3.20;99.90;;;;;;5035604;28;20048;-78
2023/03/17 03:28:00;;;;;;;1999.90;999.90;;;3.20;99.90;;;;;;5035987;28;20077;-77
2023/03/17 03:30:25;;;;;;;1999.90;999.90;;;3.10;99.90;;;;;;5036162;28;20454;-77
2023/03/17 03:32:51;;;;;;;1999.90;999.90;;;3.00;99.90;;;;;;5033959;28;20036;-77
2023/03/17 03:35:17;;;;;;;1999.90;999.90;;;2.80;99.90;;;;;;5035411;28;20044;-77
2023/03/17 03:37:42;;;;;;;1999.90;999.90;;;2.70;99.90;;;;;;5036008;28;20353;-77
2023/03/17 03:40:08;;;;;;;1999.90;999.90;;;2.60;99.90;;;;;;5035907;28;20392;-78
2023/03/17 03:42:34;;;;;;;1999.90;999.90;;;2.60;99.90;;;;;;5034315;28;20038;-78
2023/03/17 03:45:00;;;;;;;1999.90;999.90;;;2.40;99.90;;;;;;5033910;28;20173;-77
2023/03/17 03:47:25;;;;;;;1999.90;999.90;;;2.40;99.90;;;;;;5035425;28;20027;-77
2023/03/17 03:49:51;;;;;;;1999.90;999.90;;;2.40;99.90;;;;;;5035534;28;20046;-77
2023/03/17 03:52:16;;;;;;;1999.90;999.90;;;2.30;99.90;;;;;;5035779;28;20096;-77
2023/03/17 03:54:42;;;;;;;1999.90;999.90;;;2.20;99.90;;;;;;5035405;28;20396;-77
2023/03/17 03:57:07;;;;;;;1999.90;999.90;;;2.10;99.90;;;;;;5035551;28;20061;-77
2023/03/17 03:59:33;;;;;;;1999.90;999.90;;;2.00;99.90;;;;;;5035681;28;20041;-78
2023/03/17 04:01:59;;;;;;;1999.90;999.90;;;1.80;99.90;;;;;;5035408;28;20034;-77
2023/03/17 04:04:24;;;;;;;1999.90;999.90;;;1.80;99.90;;;;;;5035242;28;20420;-77
2023/03/17 04:06:50;;;;;;;1999.90;999.90;;;1.80;99.90;;;;;;5034822;28;20093;-77
2023/03/17 04:09:15;;;;;;;1999.90;999.90;;;1.80;99.90;;;;;;5033861;28;20389;-77
2023/03/17 04:11:41;;;;;;;1999.90;999.90;;;1.80;99.90;;;;;;5035373;28;20128;-77
2023/03/17 04:14:07;;;;;;;1999.90;999.90;;;1.70;99.90;;;;;;5034748;28;20029;-77
2023/03/17 04:16:33;;;;;;;1999.90;999.90;;;1.70;99.90;;;;;;5035171;28;20029;-77
2023/03/17 04:18:58;;;;;;;1999.90;999.90;;;1.80;99.90;;;;;;5035368;28;20037;-78
2023/03/17 04:21:24;;;;;;;1999.90;999.90;;;1.80;99.90;;;;;;5033840;28;20030;-78
2023/03/17 04:23:49;;;;;;;1999.90;999.90;;;1.70;99.90;;;;;;5034821;28;20125;-78
2023/03/17 04:26:17;;;;;;;1999.90;999.90;;;1.60;99.90;;;;;;5034973;28;20042;-78
2023/03/17 04:28:43;;;;;;;1999.90;999.90;;;1.50;99.90;;;;;;5035052;28;20057;-78
2023/03/17 04:31:11;;;;;;;1999.90;999.90;;;1.50;99.90;;;;;;5034861;28;20057;-78
2023/03/17 04:33:37;;;;;;;1999.90;999.90;;;1.40;99.90;;;;;;5034822;28;20042;-78
2023/03/17 04:36:03;;;;;;;1999.90;999.90;;;1.50;99.90;;;;;;5032930;28;20037;-78
2023/03/17 04:38:28;;;;;;;1999.90;999.90;;;1.40;99.90;;;;;;5034744;28;20112;-78
2023/03/17 04:40:54;;;;;;;1999.90;999.90;;;1.40;99.90;;;;;;5033430;28;20060;-78
2023/03/17 04:43:19;;;;;;;1999.90;999.90;;;1.30;99.90;;;;;;5034393;28;20057;-78
2023/03/17 04:45:45;;;;;;;1999.90;999.90;;;1.20;99.90;;;;;;5033497;28;20033;-78
2023/03/17 04:48:10;;;;;;;1999.90;999.90;;;1.30;99.90;;;;;;5034922;28;20034;-78
2023/03/17 04:50:36;;;;;;;1999.90;999.90;;;1.20;99.90;;;;;;5034608;28;20124;-78
2023/03/17 04:53:01;;;;;;;1999.90;999.90;;;1.20;99.90;;;;;;5034938;28;20042;-78
2023/03/17 04:55:27;;;;;;;1999.90;999.90;;;1.30;99.90;;;;;;5032771;28;20034;-78
2023/03/17 04:57:52;;;;;;;1999.90;999.90;;;1.30;99.90;;;;;;5034774;28;20038;-78
2023/03/17 05:00:19;;;;;;;1999.90;999.90;;;1.30;99.90;;;;;;5034682;28;20495;-78
2023/03/17 05:02:44;;;;;;;1999.90;999.90;;;1.30;99.90;;;;;;5034617;28;20042;-78
2023/03/17 05:05:11;;;;;;;1999.90;999.90;;;1.30;99.90;;;;;;5032408;28;20396;-78
2023/03/17 05:07:37;;;;;;;1999.90;999.90;;;1.20;99.90;;;;;;5034618;28;20033;-78
2023/03/17 05:10:04;;;;;;;1999.90;999.90;;;1.10;99.90;;;;;;5034693;28;20112;-79
2023/03/17 05:12:29;;;;;;;1999.90;999.90;;;1.10;99.90;;;;;;5037352;28;20519;-79
2023/03/17 05:14:55;;;;;;;1999.90;999.90;;;1.00;99.90;;;;;;5037165;28;20037;-78
2023/03/17 05:17:21;;;;;;;1999.90;999.90;;;1.00;99.90;;;;;;5036890;28;20065;-79
2023/03/17 05:19:46;;;;;;;1999.90;999.90;;;1.00;99.90;;;;;;5037469;28;20042;-79
2023/03/17 05:22:12;;;;;;;1999.90;999.90;;;0.90;99.90;;;;;;5035803;28;20125;-78
2023/03/17 05:24:37;;;;;;;1999.90;999.90;;;0.90;99.90;;;;;;5035293;28;20369;-77
2023/03/17 05:27:03;;;;;;;1999.90;999.90;;;0.80;99.90;;;;;;5033807;28;20049;-78
2023/03/17 05:29:28;;;;;;;1999.90;999.90;;;0.80;99.90;;;;;;5036085;28;20054;-78
2023/03/17 05:31:54;;;;;;;1999.90;999.90;;;0.80;99.90;;;;;;5034225;28;20046;-77
2023/03/17 05:34:20;;;;;;;1999.90;999.90;;;0.60;99.90;;;;;;5035694;28;20049;-78
2023/03/17 05:36:45;;;;;;;1999.90;999.90;;;0.70;99.90;;;;;;5034003;28;20034;-77
2023/03/17 05:39:11;;;;;;;1999.90;999.90;;;0.70;99.90;;;;;;5036115;28;20088;-78
2023/03/17 05:41:36;;;;;;;1999.90;999.90;;;0.60;99.90;;;;;;5035466;28;20045;-78
2023/03/17 05:44:02;;;;;;;1999.90;999.90;;;0.60;99.90;;;;;;5033937;28;20109;-78
2023/03/17 05:46:28;;;;;;;1999.90;999.90;;;0.60;99.90;;;;;;5031788;28;20072;-81
2023/03/17 05:48:53;;;;;;;1999.90;999.90;;;0.70;99.90;;;;;;5034792;28;20026;-77
2023/03/17 05:51:19;;;;;;;1999.90;999.90;;;0.80;99.90;;;;;;5033540;28;20045;-78
2023/03/17 05:53:44;;;;;;;1999.90;999.90;;;0.70;99.90;;;;;;5034912;28;20030;-78
2023/03/17 05:56:10;;;;;;;1999.90;999.90;;;0.80;99.90;;;;;;5035959;28;20046;-78
2023/03/17 05:58:36;;;;;;;1999.90;999.90;;;0.90;99.90;;;;;;5036582;28;20033;-78
2023/03/17 06:01:01;;;;;;;1999.90;999.90;;;1.00;99.90;;;;;;5039026;28;20034;-78
2023/03/17 06:03:27;;;;;;;1999.90;999.90;;;1.10;99.90;;;;;;5037591;28;20030;-78
2023/03/17 06:05:52;;;;;;;1999.90;999.90;;;1.20;99.90;;;;;;5036047;28;20042;-78
2023/03/17 06:08:18;;;;;;;1999.90;999.90;;;1.30;99.90;;;;;;5036710;28;20539;-78
2023/03/17 06:10:43;;;;;;;1999.90;999.90;;;1.40;99.90;;;;;;5038369;28;20447;-78
2023/03/17 06:13:10;;;;;;;1999.90;999.90;;;1.50;99.90;;;;;;5037917;28;20036;-77
2023/03/17 06:15:36;;;;;;;1999.90;999.90;;;1.70;99.90;;;;;;5035338;28;20033;-77
2023/03/17 06:18:04;;;;;;;1999.90;999.90;;;1.70;99.90;;;;;;5037219;28;20036;-77
2023/03/17 06:20:30;;;;;;;1999.90;999.90;;;1.90;99.90;;;;;;5039412;28;20042;-77
2023/03/17 06:22:56;;;;;;;1999.90;999.90;;;1.90;99.90;;;;;;5035403;28;20084;-77
2023/03/17 06:25:22;;;;;;;1999.90;999.90;;;2.00;99.90;;;;;;5036441;28;20125;-77
2023/03/17 06:27:51;;;;;;;1999.90;999.90;;;2.10;99.90;;;;;;5035807;28;20038;-78
2023/03/17 06:30:17;;;;;;;1999.90;999.90;;;2.10;99.90;;;;;;5038384;28;20045;-77
2023/03/17 06:32:43;;;;;;;1999.90;999.90;;;2.20;99.90;;;;;;5038098;28;20030;-79
2023/03/17 06:35:08;;;;;;;1999.90;999.90;;;2.20;99.90;;;;;;5036964;28;20029;-77
2023/03/17 06:37:35;;;;;;;1999.90;999.90;;;2.30;99.90;;;;;;5036592;28;20069;-76
2023/03/17 06:40:00;;;;;;;1999.90;999.90;;;2.40;99.90;;;;;;5035595;28;20038;-75
2023/03/17 06:42:26;;;;;;;1999.90;999.90;;;2.40;99.90;;;;;;5036478;28;20030;-75
2023/03/17 06:44:52;;;;;;;1999.90;999.90;;;2.50;99.90;;;;;;5034954;28;20061;-75
2023/03/17 06:47:18;;;;;;;1999.90;999.90;;;2.50;99.90;;;;;;5034119;28;20065;-75
2023/03/17 06:49:44;;;;;;;1999.90;999.90;;;2.60;99.90;;;;;;5029819;28;20501;-75
2023/03/17 06:52:10;;;;;;;1999.90;999.90;;;2.60;99.90;;;;;;5036158;28;20042;-75
2023/03/17 06:54:36;;;;;;;1999.90;999.90;;;2.70;99.90;;;;;;5021165;28;20073;-75
2023/03/17 06:57:01;;;;;;;1999.90;999.90;;;2.70;99.90;;;;;;5036019;28;20045;-75
2023/03/17 06:59:29;;;;;;;1999.90;999.90;;;2.80;99.90;;;;;;5037150;28;20041;-79
2023/03/17 07:01:55;;;;;;;1999.90;999.90;;;3.00;99.90;;;;;;5037039;28;20030;-79
2023/03/17 07:04:20;;;;;;;1999.90;999.90;;;3.20;99.90;;;;;;5035865;28;20499;-76
2023/03/17 07:06:46;;;;;;;1999.90;999.90;;;3.20;99.90;;;;;;5033649;28;20042;-75
2023/03/17 07:09:11;;;;;;;1999.90;999.90;;;3.40;99.90;;;;;;5035739;28;20044;-76
2023/03/17 07:11:37;;;;;;;1999.90;999.90;;;3.50;99.90;;;;;;5036107;28;20042;-75
2023/03/17 07:14:04;;;;;;;1999.90;999.90;;;3.70;99.90;;;;;;5034305;28;20030;-77
2023/03/17 07:16:31;;;;;;;1999.90;999.90;;;3.90;99.90;;;;;;5016362;28;20057;-75
2023/03/17 07:18:57;;;;;;;1999.90;999.90;;;4.00;99.90;;;;;;5031800;28;20129;-76
2023/03/17 07:21:22;;;;;;;1999.90;999.90;;;4.20;99.90;;;;;;5034692;28;20560;-76
2023/03/17 07:23:48;;;;;;;1999.90;999.90;;;4.40;99.90;;;;;;5036633;28;20034;-77
2023/03/17 07:26:14;;;;;;;1999.90;999.90;;;4.50;99.90;;;;;;5036300;28;20392;-76
2023/03/17 07:28:39;;;;;;;1999.90;999.90;;;4.70;99.90;;;;;;5036257;28;20121;-75
2023/03/17 07:31:07;;;;;;;1999.90;999.90;;;4.90;99.90;;;;;;5036172;28;20061;-76
2023/03/17 07:33:33;;;;;;;1999.90;999.90;;;5.00;99.90;;;;;;5035873;28;20022;-76
2023/03/17 07:35:58;;;;;;;1999.90;999.90;;;5.20;99.90;;;;;;5033650;28;20088;-75
2023/03/17 07:38:24;;;;;;;1999.90;999.90;;;5.40;99.90;;;;;;5035867;28;20045;-75
2023/03/17 07:40:49;;;;;;;1999.90;999.90;;;5.50;99.90;;;;;;5034285;28;20369;-76
2023/03/17 07:43:16;;;;;;;1999.90;999.90;;;5.80;99.90;;;;;;5035908;28;20034;-76
2023/03/17 07:45:42;;;;;;;1999.90;999.90;;;6.00;99.90;;;;;;5034961;28;20048;-75
2023/03/17 07:48:08;;;;;;;1999.90;999.90;;;6.10;99.90;;;;;;5035349;28;20022;-75
2023/03/17 07:50:35;;;;;;;1999.90;999.90;;;6.30;99.90;;;;;;5033617;28;20193;-75
2023/03/17 07:53:01;;;;;;;1999.90;999.90;;;6.50;99.90;;;;;;5034766;28;20042;-76
2023/03/17 07:55:27;;;;;;;1999.90;999.90;;;6.70;99.90;;;;;;5033030;28;20045;-75
2023/03/17 07:57:53;;;;;;;1999.90;999.90;;;6.90;99.90;;;;;;5035400;28;20018;-76
2023/03/17 08:00:20;;;;;;;1999.90;999.90;;;7.10;99.90;;;;;;5035141;28;20041;-75
2023/03/17 08:02:46;;;;;;;1999.90;999.90;;;7.30;99.90;;;;;;5035786;28;20018;-77
2023/03/17 08:05:12;;;;;;;1999.90;999.90;;;7.50;99.90;;;;;;5034951;28;20029;-77
2023/03/17 08:07:38;;;;;;;1999.90;999.90;;;7.50;99.90;;;;;;5035519;28;20040;-77
2023/03/17 08:10:06;;;;;;;1999.90;999.90;;;7.70;99.90;;;;;;5033662;28;20468;-77
2023/03/17 08:12:32;;;;;;;1999.90;999.90;;;7.90;99.90;;;;;;5034820;28;20038;-77
2023/03/17 08:14:57;;;;;;;1999.90;999.90;;;8.10;99.90;;;;;;5035576;28;20029;-77
2023/03/17 08:17:26;;;;;;;1999.90;999.90;;;8.10;99.90;;;;;;5035157;28;20046;-76
2023/03/17 08:19:55;;;;;;;1999.90;999.90;;;8.30;99.90;;;;;;5034829;28;20042;-77
2023/03/17 08:22:22;;;;;;;1999.90;999.90;;;8.40;99.90;;;;;;5035107;28;20038;-76
2023/03/17 08:24:48;;;;;;;1999.90;999.90;;;8.50;99.90;;;;;;5033739;28;20038;-76
2023/03/17 08:27:14;;;;;;;1999.90;999.90;;;8.60;99.90;;;;;;5034610;28;20047;-76
2023/03/17 08:29:40;;;;;;;1999.90;999.90;;;8.70;99.90;;;;;;5033453;28;20041;-77
2023/03/17 08:32:06;;;;;;;1999.90;999.90;;;8.80;99.90;;;;;;5033630;28;20064;-76
2023/03/17 08:34:32;;;;;;;1999.90;999.90;;;9.00;99.90;;;;;;5034415;28;20121;-77
2023/03/17 08:36:58;;;;;;;1999.90;999.90;;;8.90;99.90;;;;;;5035206;28;20045;-77
2023/03/17 08:39:24;;;;;;;1999.90;999.90;;;9.00;99.90;;;;;;5035717;28;20038;-77
2023/03/17 08:41:49;;;;;;;1999.90;999.90;;;9.10;99.90;;;;;;5036048;28;20034;-79
2023/03/17 08:44:15;;;;;;;1999.90;999.90;;;9.40;99.90;;;;;;5033413;28;20125;-77
2023/03/17 08:46:41;;;;;;;1999.90;999.90;;;9.50;99.90;;;;;;5034987;28;20408;-77
2023/03/17 08:49:07;;;;;;;1999.90;999.90;;;9.80;99.90;;;;;;5035727;28;20062;-77
2023/03/17 08:51:34;;;;;;;1999.90;999.90;;;10.00;99.90;;;;;;5035032;28;20041;-78
2023/03/17 08:54:01;;;;;;;1999.90;999.90;;;10.20;99.90;;;;;;5034847;28;20426;-77
2023/03/17 08:56:27;;;;;;;1999.90;999.90;;;10.40;99.90;;;;;;5034491;28;20034;-77
2023/03/17 08:58:53;;;;;;;1999.90;999.90;;;10.50;99.90;;;;;;5035166;28;20060;-78
2023/03/17 09:01:19;;;;;;;1999.90;999.90;;;10.50;99.90;;;;;;5033153;28;20038;-77
2023/03/17 09:03:46;;;;;;;1999.90;999.90;;;10.30;99.90;;;;;;5034654;28;20476;-77
2023/03/17 09:06:12;;;;;;;1999.90;999.90;;;10.30;99.90;;;;;;5034077;28;20521;-78
2023/03/17 09:08:43;;;;;;;1999.90;999.90;;;10.20;99.90;;;;;;5034536;28;20030;-77
2023/03/17 09:11:12;;;;;;;1999.90;999.90;;;10.30;99.90;;;;;;5034804;28;20038;-77
2023/03/17 09:13:37;;;;;;;1999.90;999.90;;;10.50;99.90;;;;;;5034429;28;20444;-77
2023/03/17 09:16:04;;;;;;;1999.90;999.90;;;10.60;99.90;;;;;;5034131;28;20038;-77
2023/03/17 09:18:31;;;;;;;1999.90;999.90;;;10.50;99.90;;;;;;5033123;28;20030;-77
2023/03/17 09:20:57;;;;;;;1999.90;999.90;;;10.60;99.90;;;;;;5032951;28;20037;-77
2023/03/17 09:23:23;;;;;;;1999.90;999.90;;;10.70;99.90;;;;;;5032895;28;20029;-78
2023/03/17 09:25:50;;;;;;;1999.90;999.90;;;10.90;99.90;;;;;;5066069;28;20045;-78
2023/03/17 09:28:16;;;;;;;1999.90;999.90;;;10.90;99.90;;;;;;5034084;28;20542;-77
2023/03/17 09:30:42;;;;;;;1999.90;999.90;;;10.90;99.90;;;;;;5033749;28;20045;-78
2023/03/17 09:33:12;;;;;;;1999.90;999.90;;;11.00;99.90;;;;;;5037549;28;20400;-78
2023/03/17 09:35:41;;;;;;;1999.90;999.90;;;11.30;99.90;;;;;;5036811;28;20038;-77
2023/03/17 09:38:07;;;;;;;1999.90;999.90;;;11.40;99.90;;;;;;5036229;28;20026;-78
2023/03/17 09:40:53;;;;;;;1999.90;999.90;;;11.50;99.90;;;;;;5035770;28;20456;-77
2023/03/17 09:43:33;;;;;;;1999.90;999.90;;;11.60;99.90;;;;;;5035853;28;20567;-77
2023/03/17 09:46:16;;;;;;;1999.90;999.90;;;11.70;99.90;;;;;;5037076;28;20546;-78
2023/03/17 09:48:56;;;;;;;1999.90;999.90;;;11.80;99.90;;;;;;5037702;28;20041;-77
2023/03/17 09:51:22;;;;;;;1999.90;999.90;;;11.90;99.90;;;;;;5035836;28;20052;-77
2023/03/17 09:54:00;;;;;;;1999.90;999.90;;;11.80;99.90;;;;;;5035764;28;20041;-78
2023/03/17 09:56:39;;;;;;;1999.90;999.90;;;11.90;99.90;;;;;;5037529;28;20033;-77
2023/03/17 09:59:22;;;;;;;1999.90;999.90;;;12.00;99.90;;;;;;5037554;28;20093;-77
2023/03/17 10:01:49;;;;;;;1999.90;999.90;;;12.10;99.90;;;;;;5037522;28;20065;-78
2023/03/17 10:04:15;;;;;;;1999.90;999.90;;;12.40;99.90;;;;;;5035659;28;20441;-77
2023/03/17 10:06:45;;;;;;;1999.90;999.90;;;12.60;99.90;;;;;;5036975;28;20046;-77
2023/03/17 10:09:30;;;;;;;1999.90;999.90;;;12.50;99.70;;;;;;5069187;28;20034;-78
2023/03/17 10:12:09;;;;;;;1999.90;999.90;;;12.70;99.20;;;;;;5037225;28;20049;-78
2023/03/17 10:15:05;;;;;;;1999.90;999.90;;;13.00;98.60;;;;;;5036988;28;20022;-78
2023/03/17 10:17:35;;;;;;;1999.90;999.90;;;13.20;98.70;;;;;;5036232;28;20104;-79
2023/03/17 10:20:16;;;;;;;1999.90;999.90;;;13.40;97.70;;;;;;5038329;28;20125;-76
2023/03/17 10:22:52;;;;;;;1999.90;999.90;;;13.50;97.40;;;;;;5033424;28;20867;-76
2023/03/17 10:25:20;;;;;;;1999.90;999.90;;;13.60;96.70;;;;;;5036531;28;20076;-76
2023/03/17 10:27:58;;;;;;;1999.90;999.90;;;13.60;97.50;;;;;;5036967;28;20060;-79
2023/03/17 10:30:25;;;;;;;1999.90;999.90;;;13.70;96.30;;;;;;5068864;28;20041;-77
2023/03/17 10:32:52;;;;;;;1999.90;999.90;;;13.80;96.10;;;;;;5037844;28;20038;-78
2023/03/17 10:35:18;;;;;;;1999.90;999.90;;;13.90;96.00;;;;;;5036740;28;20530;-76
2023/03/17 10:37:46;;;;;;;1999.90;999.90;;;13.90;96.20;;;;;;5036808;28;20791;-78
2023/03/17 10:40:19;;;;;;;1999.90;999.90;;;14.00;96.30;;;;;;5036668;28;20038;-77
2023/03/17 10:42:59;;;;;;;1999.90;999.90;;;14.10;96.50;;;;;;5034050;28;20806;-77
2023/03/17 10:45:31;;;;;;;1999.90;999.90;;;14.20;95.60;;;;;;5017552;28;20034;-78
2023/03/17 10:47:59;;;;;;;1999.90;999.90;;;14.20;95.80;;;;;;5024369;28;20030;-77
2023/03/17 10:50:25;;;;;;;1999.90;999.90;;;14.40;96.00;;;;;;5034920;28;20042;-76
2023/03/17 10:53:02;;;;;;;1999.90;999.90;;;14.70;95.60;;;;;;5036681;28;20038;-76
2023/03/17 10:55:41;;;;;;;1999.90;999.90;;;14.90;95.40;;;;;;5036200;28;20042;-76
2023/03/17 10:58:06;;;;;;;1999.90;999.90;;;15.20;93.90;;;;;;5036353;28;20033;-76
2023/03/17 11:00:35;;;;;;;1999.90;999.90;;;15.40;94.30;;;;;;5036443;28;20061;-77
2023/03/17 11:03:32;;;;;;;1999.90;999.90;;;15.50;93.20;;;;;;5035893;28;20030;-78
2023/03/17 11:06:24;;;;;;;1999.90;999.90;;;15.50;92.70;;;;;;5017548;28;20043;-79
2023/03/17 11:08:52;;;;;;;1999.90;999.90;;;15.80;92.60;;;;;;5018619;28;20528;-78
2023/03/17 11:11:29;;;;;;;1999.90;999.90;;;16.10;91.50;;;;;;5035790;28;20050;-77
2023/03/17 11:14:12;;;;;;;1999.90;999.90;;;16.20;91.20;;;;;;5035661;28;20033;-76
2023/03/17 11:17:01;;;;;;;1999.90;999.90;;;16.60;90.70;;;;;;5035590;28;20038;-77
2023/03/17 11:19:50;;;;;;;1999.90;999.90;;;16.80;91.60;;;;;;5036144;28;20034;-77
2023/03/17 11:22:30;;;;;;;1999.90;999.90;;;17.20;89.70;;;;;;5030884;28;20069;-77
2023/03/17 11:24:55;;;;;;;1999.90;999.90;;;17.30;86.40;;;;;;5034271;28;20034;-77
2023/03/17 11:27:34;;;;;;;1999.90;999.90;;;17.40;84.70;;;;;;5033888;28;20524;-77
2023/03/17 11:30:41;;;;;;;1999.90;999.90;;;17.50;83.90;;;;;;5026988;28;20061;-78
2023/03/17 11:33:20;;;;;;;1999.90;999.90;;;17.40;85.40;;;;;;5006327;28;20050;-77
2023/03/17 11:36:04;;;;;;;1999.90;999.90;;;17.70;85.80;;;;;;5034481;28;20030;-77
2023/03/17 11:38:35;;;;;;;1999.90;999.90;;;17.90;87.70;;;;;;5035560;28;20034;-77
2023/03/17 11:41:13;;;;;;;1999.90;999.90;;;18.20;82.80;;;;;;5021456;28;20399;-78
2023/03/17 11:43:42;;;;;;;1999.90;999.90;;;18.40;81.40;;;;;;5034528;28;20492;-75
2023/03/17 11:46:26;;;;;;;1999.90;999.90;;;18.40;84.30;;;;;;5035944;28;20030;-75
2023/03/17 11:49:04;;;;;;;1999.90;999.90;;;18.20;83.60;;;;;;5035803;28;20034;-75
2023/03/17 11:51:48;;;;;;;1999.90;999.90;;;18.30;84.70;;;;;;5035825;28;20500;-76
2023/03/17 11:54:55;;;;;;;1999.90;999.90;;;18.50;83.90;;;;;;5035522;28;20034;-75
2023/03/17 11:57:53;;;;;;;1999.90;999.90;;;18.50;81.40;;;;;;5035553;28;20127;-75
2023/03/17 12:00:31;;;;;;;1999.90;999.90;;;18.60;82.40;;;;;;5021205;28;20065;-75
2023/03/17 12:03:06;;;;;;;1999.90;999.90;;;18.70;81.20;;;;;;5035136;28;20038;-76
2023/03/17 12:05:33;;;;;;;1999.90;999.90;;;18.70;82.80;;;;;;5036492;28;20034;-77
2023/03/17 12:08:06;;;;;;;1999.90;999.90;;;19.00;81.30;;;;;;5034933;28;20045;-78
2023/03/17 12:10:53;;;;;;;1999.90;999.90;;;19.00;80.40;;;;;;5035920;28;20053;-77
2023/03/17 12:13:51;;;;;;;1999.90;999.90;;;18.90;84.50;;;;;;5034859;28;20058;-77
2023/03/17 12:16:20;;;;;;;1999.90;999.90;;;18.90;80.60;;;;;;5013744;28;20046;-77